sensor_id;sensor_type;location;lat;lon;timestamp;pressure;altitude;pressure_sealevel;temperature;humidity
26697;BME280;14312;52.614;13.496;2023-09-30T00:02:06;101303.50;;;20.81;61.09
26697;BME280;14312;52.614;13.496;2023-09-30T00:04:52;101319.44;;;20.83;61.34
26697;BME280;14312;52.614;13.496;2023-09-30T00:07:37;101299.53;;;20.74;61.50
26697;BME280;14312;52.614;13.496;2023-09-30T00:10:23;101314.16;;;20.73;60.95
26697;BME280;14312;52.614;13.496;2023-09-30T00:13:09;101323.44;;;20.66;60.79
26697;BME280;14312;52.614;13.496;2023-09-30T00:15:55;101320.28;;;20.59;60.86
26697;BME280;14312;52.614;13.496;2023-09-30T00:18:41;101334.69;;;20.55;60.85
26697;BME280;14312;52.614;13.496;2023-09-30T00:21:27;101343.69;;;20.50;60.42
26697;BME280;14312;52.614;13.496;2023-09-30T00:24:13;101342.13;;;20.44;60.56
26697;BME280;14312;52.614;13.496;2023-09-30T00:26:59;101351.72;;;20.31;60.57
26697;BME280;14312;52.614;13.496;2023-09-30T00:29:45;101355.28;;;20.27;60.28
26697;BME280;14312;52.614;13.496;2023-09-30T00:32:31;101349.44;;;20.15;60.15
26697;BME280;14312;52.614;13.496;2023-09-30T00:35:17;101367.03;;;20.17;60.29
26697;BME280;14312;52.614;13.496;2023-09-30T00:38:03;101373.09;;;20.04;60.13
26697;BME280;14312;52.614;13.496;2023-09-30T00:40:49;101369.16;;;19.91;60.09
26697;BME280;14312;52.614;13.496;2023-09-30T00:43:35;101378.34;;;19.90;60.20
26697;BME280;14312;52.614;13.496;2023-09-30T00:46:26;101380.56;;;19.83;60.36
26697;BME280;14312;52.614;13.496;2023-09-30T00:49:14;101384.13;;;19.79;60.35
26697;BME280;14312;52.614;13.496;2023-09-30T00:52:00;101375.28;;;19.68;60.36
26697;BME280;14312;52.614;13.496;2023-09-30T00:54:49;101389.66;;;19.64;60.12
26697;BME280;14312;52.614;13.496;2023-09-30T00:57:37;101397.00;;;19.58;59.94
26697;BME280;14312;52.614;13.496;2023-09-30T01:00:24;101401.38;;;19.49;60.00
26697;BME280;14312;52.614;13.496;2023-09-30T01:03:11;101393.31;;;19.39;59.97
26697;BME280;14312;52.614;13.496;2023-09-30T01:05:58;101393.31;;;19.39;59.98
26697;BME280;14312;52.614;13.496;2023-09-30T01:08:44;101393.91;;;19.26;59.68
26697;BME280;14312;52.614;13.496;2023-09-30T01:11:32;101395.59;;;19.16;59.46
26697;BME280;14312;52.614;13.496;2023-09-30T01:14:32;101408.63;;;19.09;59.85
26697;BME280;14312;52.614;13.496;2023-09-30T01:17:23;101402.44;;;18.99;59.61
26697;BME280;14312;52.614;13.496;2023-09-30T01:20:09;101402.75;;;18.87;59.60
26697;BME280;14312;52.614;13.496;2023-09-30T01:23:02;101411.13;;;18.86;59.92
26697;BME280;14312;52.614;13.496;2023-09-30T01:25:49;101422.78;;;18.76;59.68
26697;BME280;14312;52.614;13.496;2023-09-30T01:28:35;101420.66;;;18.63;59.77
26697;BME280;14312;52.614;13.496;2023-09-30T01:31:22;101424.16;;;18.63;59.69
26697;BME280;14312;52.614;13.496;2023-09-30T01:34:08;101427.13;;;18.52;59.54
26697;BME280;14312;52.614;13.496;2023-09-30T01:36:54;101449.84;;;18.46;59.89
26697;BME280;14312;52.614;13.496;2023-09-30T01:39:40;101443.34;;;18.36;59.47
26697;BME280;14312;52.614;13.496;2023-09-30T01:42:26;101452.53;;;18.30;59.82
26697;BME280;14312;52.614;13.496;2023-09-30T01:45:12;101473.56;;;18.33;59.88
26697;BME280;14312;52.614;13.496;2023-09-30T01:47:58;101460.09;;;18.18;59.56
26697;BME280;14312;52.614;13.496;2023-09-30T01:50:44;101461.16;;;18.12;59.82
26697;BME280;14312;52.614;13.496;2023-09-30T01:53:30;101467.63;;;18.06;59.80
26697;BME280;14312;52.614;13.496;2023-09-30T01:56:16;101474.66;;;18.02;60.08
26697;BME280;14312;52.614;13.496;2023-09-30T01:59:02;101482.75;;;18.02;59.47
26697;BME280;14312;52.614;13.496;2023-09-30T02:01:49;101473.56;;;17.88;59.93
26697;BME280;14312;52.614;13.496;2023-09-30T02:04:35;101493.25;;;17.88;59.90
26697;BME280;14312;52.614;13.496;2023-09-30T02:07:21;101486.22;;;17.77;60.00
26697;BME280;14312;52.614;13.496;2023-09-30T02:10:07;101501.06;;;17.80;59.96
26697;BME280;14312;52.614;13.496;2023-09-30T02:12:53;101482.94;;;17.65;60.09
26697;BME280;14312;52.614;13.496;2023-09-30T02:15:40;101510.72;;;17.66;59.94
26697;BME280;14312;52.614;13.496;2023-09-30T02:18:27;101505.81;;;17.57;60.00
26697;BME280;14312;52.614;13.496;2023-09-30T02:21:13;101486.38;;;17.40;60.20
26697;BME280;14312;52.614;13.496;2023-09-30T02:23:59;101501.44;;;17.36;60.24
26697;BME280;14312;52.614;13.496;2023-09-30T02:26:45;101505.44;;;17.29;60.47
26697;BME280;14312;52.614;13.496;2023-09-30T02:29:31;101500.28;;;17.22;60.71
26697;BME280;14312;52.614;13.496;2023-09-30T02:32:17;101488.44;;;17.18;60.71
26697;BME280;14312;52.614;13.496;2023-09-30T02:35:04;101498.63;;;17.11;60.86
26697;BME280;14312;52.614;13.496;2023-09-30T02:37:52;101506.16;;;17.09;60.94
26697;BME280;14312;52.614;13.496;2023-09-30T02:40:38;101517.97;;;17.03;61.13
26697;BME280;14312;52.614;13.496;2023-09-30T02:43:26;101515.78;;;16.95;61.06
26697;BME280;14312;52.614;13.496;2023-09-30T02:46:12;101540.03;;;17.00;61.20
26697;BME280;14312;52.614;13.496;2023-09-30T02:48:58;101532.97;;;16.89;61.29
26697;BME280;14312;52.614;13.496;2023-09-30T02:51:44;101531.84;;;16.84;61.42
26697;BME280;14312;52.614;13.496;2023-09-30T02:54:31;101538.28;;;16.78;61.71
26697;BME280;14312;52.614;13.496;2023-09-30T02:57:17;101527.47;;;16.73;61.65
26697;BME280;14312;52.614;13.496;2023-09-30T03:00:04;101551.97;;;16.77;61.66
26697;BME280;14312;52.614;13.496;2023-09-30T03:03:09;101561.38;;;16.69;61.70
26697;BME280;14312;52.614;13.496;2023-09-30T03:05:55;101546.22;;;16.63;61.56
26697;BME280;14312;52.614;13.496;2023-09-30T03:08:41;101551.31;;;16.60;61.88
26697;BME280;14312;52.614;13.496;2023-09-30T03:11:26;101554.84;;;16.60;61.94
26697;BME280;14312;52.614;13.496;2023-09-30T03:14:13;101559.03;;;16.51;62.00
26697;BME280;14312;52.614;13.496;2023-09-30T03:16:59;101565.72;;;16.49;62.27
26697;BME280;14312;52.614;13.496;2023-09-30T03:19:45;101562.19;;;16.43;61.92
26697;BME280;14312;52.614;13.496;2023-09-30T03:22:31;101562.19;;;16.43;62.34
26697;BME280;14312;52.614;13.496;2023-09-30T03:25:18;101572.41;;;16.41;62.29
26697;BME280;14312;52.614;13.496;2023-09-30T03:28:04;101559.94;;;16.35;62.29
26697;BME280;14312;52.614;13.496;2023-09-30T03:30:52;101570.22;;;16.38;62.77
26697;BME280;14312;52.614;13.496;2023-09-30T03:33:38;101575.00;;;16.31;62.76
26697;BME280;14312;52.614;13.496;2023-09-30T03:36:24;101557.75;;;16.27;62.93
26697;BME280;14312;52.614;13.496;2023-09-30T03:39:10;101577.47;;;16.37;62.70
26697;BME280;14312;52.614;13.496;2023-09-30T03:42:00;101558.81;;;16.26;62.99
26697;BME280;14312;52.614;13.496;2023-09-30T03:44:46;101563.91;;;16.27;62.87
26697;BME280;14312;52.614;13.496;2023-09-30T03:47:39;101565.81;;;16.27;63.55
26697;BME280;14312;52.614;13.496;2023-09-30T03:50:25;101559.56;;;16.21;63.09
26697;BME280;14312;52.614;13.496;2023-09-30T03:53:11;101574.88;;;16.21;63.34
26697;BME280;14312;52.614;13.496;2023-09-30T03:55:57;101579.72;;;16.19;63.25
26697;BME280;14312;52.614;13.496;2023-09-30T03:58:44;101587.22;;;16.17;63.48
26697;BME280;14312;52.614;13.496;2023-09-30T04:01:34;101574.28;;;16.14;63.65
26697;BME280;14312;52.614;13.496;2023-09-30T04:04:20;101588.25;;;16.11;63.77
26697;BME280;14312;52.614;13.496;2023-09-30T04:07:09;101578.53;;;16.10;63.55
26697;BME280;14312;52.614;13.496;2023-09-30T04:09:55;101596.31;;;16.11;63.60
26697;BME280;14312;52.614;13.496;2023-09-30T04:12:41;101595.78;;;16.14;63.37
26697;BME280;14312;52.614;13.496;2023-09-30T04:15:28;101590.34;;;16.09;63.71
26697;BME280;14312;52.614;13.496;2023-09-30T04:18:14;101587.88;;;16.02;63.79
26697;BME280;14312;52.614;13.496;2023-09-30T04:21:00;101597.25;;;15.99;63.60
26697;BME280;14312;52.614;13.496;2023-09-30T04:23:46;101601.25;;;15.97;63.75
26697;BME280;14312;52.614;13.496;2023-09-30T04:26:32;101608.53;;;15.96;63.91
26697;BME280;14312;52.614;13.496;2023-09-30T04:29:18;101607.38;;;15.92;63.87
26697;BME280;14312;52.614;13.496;2023-09-30T04:32:04;101625.72;;;15.95;63.95
26697;BME280;14312;52.614;13.496;2023-09-30T04:34:50;101620.53;;;15.89;64.03
26697;BME280;14312;52.614;13.496;2023-09-30T04:37:37;101629.97;;;15.91;64.18
26697;BME280;14312;52.614;13.496;2023-09-30T04:40:23;101624.47;;;15.81;64.29
26697;BME280;14312;52.614;13.496;2023-09-30T04:43:10;101608.00;;;15.78;64.22
26697;BME280;14312;52.614;13.496;2023-09-30T04:45:56;101607.22;;;15.77;64.23
26697;BME280;14312;52.614;13.496;2023-09-30T04:48:43;101617.41;;;15.75;64.49
26697;BME280;14312;52.614;13.496;2023-09-30T04:51:34;101609.34;;;15.75;64.37
26697;BME280;14312;52.614;13.496;2023-09-30T04:54:20;101613.91;;;15.75;64.30
26697;BME280;14312;52.614;13.496;2023-09-30T04:57:07;101597.97;;;15.68;64.41
26697;BME280;14312;52.614;13.496;2023-09-30T04:59:53;101604.97;;;15.69;64.44
26697;BME280;14312;52.614;13.496;2023-09-30T05:02:39;101602.19;;;15.64;64.52
26697;BME280;14312;52.614;13.496;2023-09-30T05:05:25;101615.38;;;15.65;64.42
26697;BME280;14312;52.614;13.496;2023-09-30T05:08:11;101633.97;;;15.67;64.64
26697;BME280;14312;52.614;13.496;2023-09-30T05:10:59;101623.38;;;15.60;64.67
26697;BME280;14312;52.614;13.496;2023-09-30T05:13:46;101624.69;;;15.58;64.79
26697;BME280;14312;52.614;13.496;2023-09-30T05:16:32;101631.13;;;15.57;64.64
26697;BME280;14312;52.614;13.496;2023-09-30T05:19:18;101648.97;;;15.63;64.87
26697;BME280;14312;52.614;13.496;2023-09-30T05:22:05;101645.69;;;15.61;64.81
26697;BME280;14312;52.614;13.496;2023-09-30T05:24:51;101639.19;;;15.57;65.09
26697;BME280;14312;52.614;13.496;2023-09-30T05:27:37;101642.78;;;15.62;65.12
26697;BME280;14312;52.614;13.496;2023-09-30T05:30:23;101633.81;;;15.57;64.98
26697;BME280;14312;52.614;13.496;2023-09-30T05:33:10;101644.56;;;15.57;65.20
26697;BME280;14312;52.614;13.496;2023-09-30T05:36:00;101659.13;;;15.61;65.13
26697;BME280;14312;52.614;13.496;2023-09-30T05:38:48;101647.34;;;15.62;65.60
26697;BME280;14312;52.614;13.496;2023-09-30T05:41:34;101667.59;;;15.70;65.51
26697;BME280;14312;52.614;13.496;2023-09-30T05:44:20;101667.84;;;15.68;65.62
26697;BME280;14312;52.614;13.496;2023-09-30T05:47:07;101670.00;;;15.71;65.66
26697;BME280;14312;52.614;13.496;2023-09-30T05:49:54;101675.47;;;15.76;65.55
26697;BME280;14312;52.614;13.496;2023-09-30T05:52:41;101667.94;;;15.78;65.59
26697;BME280;14312;52.614;13.496;2023-09-30T05:55:27;101674.97;;;15.79;65.61
26697;BME280;14312;52.614;13.496;2023-09-30T05:58:14;101674.47;;;15.82;65.66
26697;BME280;14312;52.614;13.496;2023-09-30T06:01:02;101692.28;;;15.88;65.71
26697;BME280;14312;52.614;13.496;2023-09-30T06:03:48;101696.09;;;15.92;65.78
26697;BME280;14312;52.614;13.496;2023-09-30T06:06:34;101691.91;;;16.01;65.97
26697;BME280;14312;52.614;13.496;2023-09-30T06:09:20;101698.34;;;16.00;65.85
26697;BME280;14312;52.614;13.496;2023-09-30T06:12:10;101698.97;;;16.08;66.17
26697;BME280;14312;52.614;13.496;2023-09-30T06:14:57;101701.84;;;16.23;65.99
26697;BME280;14312;52.614;13.496;2023-09-30T06:17:44;101698.09;;;16.24;66.19
26697;BME280;14312;52.614;13.496;2023-09-30T06:20:31;101695.47;;;16.29;66.07
26697;BME280;14312;52.614;13.496;2023-09-30T06:23:20;101704.22;;;16.41;66.36
26697;BME280;14312;52.614;13.496;2023-09-30T06:26:06;101703.75;;;16.49;65.93
26697;BME280;14312;52.614;13.496;2023-09-30T06:28:52;101700.56;;;16.52;65.81
26697;BME280;14312;52.614;13.496;2023-09-30T06:31:40;101721.72;;;16.65;65.89
26697;BME280;14312;52.614;13.496;2023-09-30T06:34:26;101713.41;;;16.67;65.86
26697;BME280;14312;52.614;13.496;2023-09-30T06:37:12;101713.69;;;16.70;65.74
26697;BME280;14312;52.614;13.496;2023-09-30T06:39:58;101734.25;;;16.76;65.75
26697;BME280;14312;52.614;13.496;2023-09-30T06:42:44;101726.78;;;16.83;65.56
26697;BME280;14312;52.614;13.496;2023-09-30T06:45:30;101741.84;;;16.84;65.26
26697;BME280;14312;52.614;13.496;2023-09-30T06:48:18;101739.72;;;16.87;65.42
26697;BME280;14312;52.614;13.496;2023-09-30T06:51:04;101733.84;;;16.90;65.50
26697;BME280;14312;52.614;13.496;2023-09-30T06:53:50;101734.13;;;16.93;65.58
26697;BME280;14312;52.614;13.496;2023-09-30T06:56:37;101724.28;;;17.04;65.66
26697;BME280;14312;52.614;13.496;2023-09-30T06:59:23;101722.94;;;17.06;65.77
26697;BME280;14312;52.614;13.496;2023-09-30T07:02:11;101732.50;;;17.19;65.76
26697;BME280;14312;52.614;13.496;2023-09-30T07:04:57;101739.56;;;17.30;65.51
26697;BME280;14312;52.614;13.496;2023-09-30T07:07:43;101743.44;;;17.39;65.34
26697;BME280;14312;52.614;13.496;2023-09-30T07:10:29;101748.88;;;17.49;65.43
26697;BME280;14312;52.614;13.496;2023-09-30T07:13:16;101766.75;;;17.60;65.32
26697;BME280;14312;52.614;13.496;2023-09-30T07:16:02;101747.63;;;17.62;65.25
26697;BME280;14312;52.614;13.496;2023-09-30T07:18:48;101759.81;;;17.70;65.18
26697;BME280;14312;52.614;13.496;2023-09-30T07:21:34;101779.56;;;17.75;64.86
26697;BME280;14312;52.614;13.496;2023-09-30T07:24:20;101768.28;;;17.83;64.77
26697;BME280;14312;52.614;13.496;2023-09-30T07:27:06;101776.44;;;17.93;64.40
26697;BME280;14312;52.614;13.496;2023-09-30T07:29:52;101785.91;;;17.96;64.31
26697;BME280;14312;52.614;13.496;2023-09-30T07:32:38;101781.59;;;18.00;64.25
26697;BME280;14312;52.614;13.496;2023-09-30T07:35:24;101783.81;;;18.08;64.11
26697;BME280;14312;52.614;13.496;2023-09-30T07:38:10;101792.97;;;18.07;64.20
26697;BME280;14312;52.614;13.496;2023-09-30T07:40:56;101781.66;;;18.10;64.06
26697;BME280;14312;52.614;13.496;2023-09-30T07:43:42;101791.16;;;18.23;64.15
26697;BME280;14312;52.614;13.496;2023-09-30T07:46:28;101784.38;;;18.15;63.68
26697;BME280;14312;52.614;13.496;2023-09-30T07:49:14;101795.75;;;18.22;63.94
26697;BME280;14312;52.614;13.496;2023-09-30T07:52:00;101800.63;;;18.25;63.90
26697;BME280;14312;52.614;13.496;2023-09-30T07:54:46;101805.50;;;18.28;63.93
26697;BME280;14312;52.614;13.496;2023-09-30T07:57:33;101796.63;;;18.33;63.69
26697;BME280;14312;52.614;13.496;2023-09-30T08:00:19;101820.69;;;18.45;63.78
26697;BME280;14312;52.614;13.496;2023-09-30T08:03:06;101815.81;;;18.42;63.27
26697;BME280;14312;52.614;13.496;2023-09-30T08:05:53;101821.19;;;18.42;63.32
26697;BME280;14312;52.614;13.496;2023-09-30T08:08:39;101810.41;;;18.42;63.13
26697;BME280;14312;52.614;13.496;2023-09-30T08:11:25;101816.88;;;18.40;63.06
26697;BME280;14312;52.614;13.496;2023-09-30T08:14:13;101829.84;;;18.44;63.11
26697;BME280;14312;52.614;13.496;2023-09-30T08:17:00;101813.66;;;18.44;63.12
26697;BME280;14312;52.614;13.496;2023-09-30T08:19:48;101809.09;;;18.44;62.97
26697;BME280;14312;52.614;13.496;2023-09-30T08:22:34;101820.16;;;18.48;63.17
26697;BME280;14312;52.614;13.496;2023-09-30T08:25:20;101835.84;;;18.51;63.45
26697;BME280;14312;52.614;13.496;2023-09-30T08:28:05;101820.72;;;18.55;63.65
26697;BME280;14312;52.614;13.496;2023-09-30T08:30:51;101843.50;;;18.69;63.65
26697;BME280;14312;52.614;13.496;2023-09-30T08:33:40;101829.47;;;18.77;63.17
26697;BME280;14312;52.614;13.496;2023-09-30T08:36:30;101834.94;;;18.87;63.37
26697;BME280;14312;52.614;13.496;2023-09-30T08:39:16;101839.81;;;19.00;62.80
26697;BME280;14312;52.614;13.496;2023-09-30T08:42:04;101831.97;;;18.99;62.79
26697;BME280;14312;52.614;13.496;2023-09-30T08:44:54;101849.56;;;19.06;62.81
26697;BME280;14312;52.614;13.496;2023-09-30T08:47:41;101839.84;;;19.10;62.80
26697;BME280;14312;52.614;13.496;2023-09-30T08:50:27;101837.69;;;19.12;62.17
26697;BME280;14312;52.614;13.496;2023-09-30T08:53:14;101832.31;;;19.23;62.03
26697;BME280;14312;52.614;13.496;2023-09-30T08:56:03;101843.13;;;19.23;62.74
26697;BME280;14312;52.614;13.496;2023-09-30T08:59:02;101848.53;;;19.33;62.67
26697;BME280;14312;52.614;13.496;2023-09-30T09:01:49;101836.91;;;19.42;62.82
26697;BME280;14312;52.614;13.496;2023-09-30T09:04:36;101837.78;;;19.53;62.35
26697;BME280;14312;52.614;13.496;2023-09-30T09:07:22;101836.69;;;19.59;62.49
26697;BME280;14312;52.614;13.496;2023-09-30T09:10:10;101838.84;;;19.77;62.67
26697;BME280;14312;52.614;13.496;2023-09-30T09:12:59;101827.47;;;19.90;62.62
26697;BME280;14312;52.614;13.496;2023-09-30T09:15:47;101836.66;;;20.10;62.90
26697;BME280;14312;52.614;13.496;2023-09-30T09:18:33;101832.25;;;20.29;63.15
26697;BME280;14312;52.614;13.496;2023-09-30T09:21:21;101822.44;;;20.53;62.87
26697;BME280;14312;52.614;13.496;2023-09-30T09:24:26;101845.03;;;20.93;61.45
26697;BME280;14312;52.614;13.496;2023-09-30T09:27:13;101818.06;;;21.11;61.51
26697;BME280;14312;52.614;13.496;2023-09-30T09:33:05;101817.78;;;21.57;60.22
26697;BME280;14312;52.614;13.496;2023-09-30T09:35:51;101818.41;;;21.78;60.30
26697;BME280;14312;52.614;13.496;2023-09-30T09:38:44;101835.78;;;22.06;59.13
26697;BME280;14312;52.614;13.496;2023-09-30T09:41:53;101818.47;;;22.25;58.62
26697;BME280;14312;52.614;13.496;2023-09-30T09:44:41;101825.88;;;22.44;58.98
26697;BME280;14312;52.614;13.496;2023-09-30T09:47:29;101817.19;;;22.65;58.70
26697;BME280;14312;52.614;13.496;2023-09-30T09:50:17;101815.31;;;22.85;58.23
26697;BME280;14312;52.614;13.496;2023-09-30T09:53:04;101821.84;;;23.02;57.59
26697;BME280;14312;52.614;13.496;2023-09-30T09:55:51;101821.47;;;23.09;56.55
26697;BME280;14312;52.614;13.496;2023-09-30T09:58:39;101810.25;;;23.16;56.14
26697;BME280;14312;52.614;13.496;2023-09-30T10:01:28;101812.59;;;23.22;55.89
26697;BME280;14312;52.614;13.496;2023-09-30T10:04:14;101822.00;;;23.30;55.98
26697;BME280;14312;52.614;13.496;2023-09-30T10:07:01;101825.63;;;23.39;55.97
26697;BME280;14312;52.614;13.496;2023-09-30T10:09:50;101817.41;;;23.44;55.34
26697;BME280;14312;52.614;13.496;2023-09-30T10:12:38;101818.88;;;23.55;55.13
26697;BME280;14312;52.614;13.496;2023-09-30T10:18:11;101811.22;;;23.57;54.17
26697;BME280;14312;52.614;13.496;2023-09-30T10:21:07;101802.66;;;23.45;52.78
26697;BME280;14312;52.614;13.496;2023-09-30T10:30:18;101811.25;;;23.20;53.10
26697;BME280;14312;52.614;13.496;2023-09-30T10:35:52;101807.56;;;23.11;53.18
26697;BME280;14312;52.614;13.496;2023-09-30T10:38:39;101822.28;;;23.10;53.34
26697;BME280;14312;52.614;13.496;2023-09-30T10:53:32;101840.22;;;23.48;52.45
26697;BME280;14312;52.614;13.496;2023-09-30T10:56:19;101837.81;;;23.60;52.37
26697;BME280;14312;52.614;13.496;2023-09-30T10:59:05;101831.19;;;23.66;52.09
26697;BME280;14312;52.614;13.496;2023-09-30T11:01:52;101827.88;;;23.69;51.43
26697;BME280;14312;52.614;13.496;2023-09-30T11:04:47;101822.28;;;23.79;50.56
26697;BME280;14312;52.614;13.496;2023-09-30T11:07:34;101828.03;;;23.92;50.66
26697;BME280;14312;52.614;13.496;2023-09-30T11:10:22;101818.88;;;24.01;50.63
26697;BME280;14312;52.614;13.496;2023-09-30T11:13:09;101826.88;;;24.25;50.23
26697;BME280;14312;52.614;13.496;2023-09-30T11:16:02;101825.47;;;24.41;48.15
26697;BME280;14312;52.614;13.496;2023-09-30T11:18:54;101825.25;;;24.51;49.03
26697;BME280;14312;52.614;13.496;2023-09-30T11:21:41;101833.53;;;24.60;48.68
26697;BME280;14312;52.614;13.496;2023-09-30T11:24:27;101820.69;;;24.61;49.10
26697;BME280;14312;52.614;13.496;2023-09-30T11:27:22;101812.78;;;24.73;47.92
26697;BME280;14312;52.614;13.496;2023-09-30T11:30:11;101809.47;;;24.76;47.85
26697;BME280;14312;52.614;13.496;2023-09-30T11:32:58;101808.44;;;24.85;47.66
26697;BME280;14312;52.614;13.496;2023-09-30T11:36:05;101807.00;;;25.02;47.85
26697;BME280;14312;52.614;13.496;2023-09-30T11:38:51;101792.44;;;25.06;47.60
26697;BME280;14312;52.614;13.496;2023-09-30T11:41:42;101809.94;;;25.27;46.66
26697;BME280;14312;52.614;13.496;2023-09-30T11:44:29;101790.69;;;25.32;46.39
26697;BME280;14312;52.614;13.496;2023-09-30T11:47:16;101791.28;;;25.43;45.89
26697;BME280;14312;52.614;13.496;2023-09-30T11:50:14;101772.69;;;25.54;45.73
26697;BME280;14312;52.614;13.496;2023-09-30T11:53:00;101788.88;;;25.72;44.45
26697;BME280;14312;52.614;13.496;2023-09-30T11:55:46;101785.22;;;25.77;43.73
26697;BME280;14312;52.614;13.496;2023-09-30T11:58:33;101783.78;;;25.80;43.81
26697;BME280;14312;52.614;13.496;2023-09-30T12:01:19;101781.22;;;25.83;44.23
26697;BME280;14312;52.614;13.496;2023-09-30T12:04:07;101774.66;;;25.84;43.22
26697;BME280;14312;52.614;13.496;2023-09-30T12:06:54;101775.63;;;25.88;43.64
26697;BME280;14312;52.614;13.496;2023-09-30T12:09:40;101786.91;;;25.95;43.42
26697;BME280;14312;52.614;13.496;2023-09-30T12:12:26;101785.34;;;26.11;42.60
26697;BME280;14312;52.614;13.496;2023-09-30T12:15:13;101782.81;;;26.24;42.11
26697;BME280;14312;52.614;13.496;2023-09-30T12:17:59;101773.22;;;26.26;42.10
26697;BME280;14312;52.614;13.496;2023-09-30T12:20:45;101781.28;;;26.40;42.07
26697;BME280;14312;52.614;13.496;2023-09-30T12:23:31;101775.72;;;26.23;41.39
26697;BME280;14312;52.614;13.496;2023-09-30T12:26:17;101772.66;;;26.07;41.83
26697;BME280;14312;52.614;13.496;2023-09-30T12:29:05;101765.38;;;26.02;42.56
26697;BME280;14312;52.614;13.496;2023-09-30T12:31:52;101754.81;;;26.09;42.53
26697;BME280;14312;52.614;13.496;2023-09-30T12:34:38;101773.72;;;26.28;41.80
26697;BME280;14312;52.614;13.496;2023-09-30T12:37:24;101770.16;;;26.36;41.29
26697;BME280;14312;52.614;13.496;2023-09-30T12:40:10;101753.94;;;26.40;41.24
26697;BME280;14312;52.614;13.496;2023-09-30T12:42:57;101759.88;;;26.33;41.26
26697;BME280;14312;52.614;13.496;2023-09-30T12:45:43;101744.22;;;26.17;41.18
26697;BME280;14312;52.614;13.496;2023-09-30T12:48:30;101750.00;;;26.06;41.98
26697;BME280;14312;52.614;13.496;2023-09-30T12:51:16;101744.88;;;26.13;41.71
26697;BME280;14312;52.614;13.496;2023-09-30T12:54:02;101753.41;;;26.21;41.80
26697;BME280;14312;52.614;13.496;2023-09-30T12:56:48;101759.00;;;26.16;41.38
26697;BME280;14312;52.614;13.496;2023-09-30T12:59:38;101756.38;;;25.93;41.43
26697;BME280;14312;52.614;13.496;2023-09-30T13:02:24;101766.09;;;25.77;41.74
26697;BME280;14312;52.614;13.496;2023-09-30T13:05:11;101757.06;;;25.46;41.64
26697;BME280;14312;52.614;13.496;2023-09-30T13:07:57;101758.56;;;25.29;42.05
26697;BME280;14312;52.614;13.496;2023-09-30T13:10:43;101752.63;;;25.27;42.87
26697;BME280;14312;52.614;13.496;2023-09-30T13:13:32;101760.91;;;25.45;42.64
26697;BME280;14312;52.614;13.496;2023-09-30T13:16:19;101759.78;;;25.68;42.43
26697;BME280;14312;52.614;13.496;2023-09-30T13:19:06;101766.31;;;25.89;42.19
26697;BME280;14312;52.614;13.496;2023-09-30T13:21:52;101751.94;;;26.15;41.78
26697;BME280;14312;52.614;13.496;2023-09-30T13:24:39;101747.19;;;26.46;41.83
26697;BME280;14312;52.614;13.496;2023-09-30T13:27:28;101756.56;;;26.71;40.94
26697;BME280;14312;52.614;13.496;2023-09-30T13:30:14;101747.38;;;26.84;40.35
26697;BME280;14312;52.614;13.496;2023-09-30T13:33:00;101767.34;;;27.02;40.08
26697;BME280;14312;52.614;13.496;2023-09-30T13:35:46;101759.16;;;27.02;39.56
26697;BME280;14312;52.614;13.496;2023-09-30T13:38:32;101746.91;;;27.08;38.21
26697;BME280;14312;52.614;13.496;2023-09-30T13:41:19;101762.06;;;26.97;38.52
26697;BME280;14312;52.614;13.496;2023-09-30T13:44:05;101754.63;;;26.88;38.58
26697;BME280;14312;52.614;13.496;2023-09-30T13:46:51;101757.34;;;26.88;38.58
26697;BME280;14312;52.614;13.496;2023-09-30T13:49:37;101756.25;;;26.89;38.49
26697;BME280;14312;52.614;13.496;2023-09-30T13:52:23;101761.56;;;26.95;38.34
26697;BME280;14312;52.614;13.496;2023-09-30T13:55:09;101754.03;;;26.92;38.21
26697;BME280;14312;52.614;13.496;2023-09-30T13:57:55;101774.63;;;26.98;37.40
26697;BME280;14312;52.614;13.496;2023-09-30T14:00:46;101773.00;;;26.97;38.06
26697;BME280;14312;52.614;13.496;2023-09-30T14:03:32;101766.56;;;26.93;37.53
26697;BME280;14312;52.614;13.496;2023-09-30T14:06:19;101765.44;;;26.94;37.49
26697;BME280;14312;52.614;13.496;2023-09-30T14:09:06;101768.47;;;27.01;37.34
26697;BME280;14312;52.614;13.496;2023-09-30T14:11:52;101751.75;;;26.94;37.46
26697;BME280;14312;52.614;13.496;2023-09-30T14:14:38;101749.19;;;26.97;37.63
26697;BME280;14312;52.614;13.496;2023-09-30T14:17:24;101762.69;;;27.11;37.04
26697;BME280;14312;52.614;13.496;2023-09-30T14:20:11;101744.66;;;27.10;37.84
26697;BME280;14312;52.614;13.496;2023-09-30T14:22:58;101750.44;;;27.17;37.44
26697;BME280;14312;52.614;13.496;2023-09-30T14:25:44;101745.75;;;27.26;37.27
26697;BME280;14312;52.614;13.496;2023-09-30T14:28:29;101741.22;;;27.30;37.22
26697;BME280;14312;52.614;13.496;2023-09-30T14:31:15;101741.72;;;27.32;37.04
26697;BME280;14312;52.614;13.496;2023-09-30T14:34:03;101730.47;;;27.25;37.38
26697;BME280;14312;52.614;13.496;2023-09-30T14:36:51;101749.75;;;27.37;37.63
26697;BME280;14312;52.614;13.496;2023-09-30T14:39:37;101731.72;;;27.36;37.25
26697;BME280;14312;52.614;13.496;2023-09-30T14:42:24;101736.53;;;27.39;37.09
26697;BME280;14312;52.614;13.496;2023-09-30T14:45:10;101728.81;;;27.41;36.87
26697;BME280;14312;52.614;13.496;2023-09-30T14:47:56;101723.34;;;27.41;37.16
26697;BME280;14312;52.614;13.496;2023-09-30T14:50:52;101719.94;;;27.53;36.62